Etusivu
METAR-TAF:

METAR-TAF

Lentoasemat :

Fond Du Lac County Airport

Fond du Lac, Wisconsin, Yhdysvallat

Leveyspiiri: 43-46-12N, Pituuspiiri: 088-29-11W, korkeus merenpinnasta: 246 m

Tämänhetkinen sää

Tämä raportti tehtiin 57 minuuttia sitten, kello 07.53 UTC
Tuuli 17 kn etelästä/lounaasta puuskistuen 25 kn:hen
Lämpötila -5°C
Kosteus 79%
Ilmanpaine 1021 hPa
Näkyvyys: 16.1 km
Muutamia pilviä 1400 ft:n korkeudessa

METAR: KFLD 220753Z AUTO 20017G25KT 10SM FEW014 M05/M08 A3016 RMK AO2 PK WND 20030/0716 SLP227 T10501083

Aika: 02:50 (08:50 UTC)


TAF: puuttuu

Säähavainnot ja -ennusteet yli 4000 lentoasemalta (METAR- ja TAF-raportit).

Käytössä olevat sääasemat on merkitty karttaan keltaisilla ja punaisilla pisteillä.

Aseta hiiri pisteen päälle nähdäksesi sääaseman nimen.

Klikkaa sitten nähdäksesi säähavainnot ja -ennusteet.

Kartan vaihtaminen: klikkaa mustalla rastilla varustettuja vihreitä pisteitä, niin voit zoomata sisään; viivalla varustettua vihreää pistettä, niin voit zoomata ulos tai vihreitä nuolia, niin pääset viereisille kartoille.


METAR-TAF: